sensor_id;sensor_type;location;lat;lon;timestamp;P1;P2;P0
46573;PMS5003;32299;53.366;-1.544;2022-10-23T00:01:16;12;9;
46573;PMS5003;32299;53.366;-1.544;2022-10-23T00:03:45;10;9;
46573;PMS5003;32299;53.366;-1.544;2022-10-23T00:06:12;11;10;
46573;PMS5003;32299;53.366;-1.544;2022-10-23T00:08:40;10;10;
46573;PMS5003;32299;53.366;-1.544;2022-10-23T00:11:07;12;10;
46573;PMS5003;32299;53.366;-1.544;2022-10-23T00:13:35;11;8;
46573;PMS5003;32299;53.366;-1.544;2022-10-23T00:16:03;8;8;
46573;PMS5003;32299;53.366;-1.544;2022-10-23T00:18:31;13;12;
46573;PMS5003;32299;53.366;-1.544;2022-10-23T00:20:58;9;9;
46573;PMS5003;32299;53.366;-1.544;2022-10-23T00:23:25;9;9;
46573;PMS5003;32299;53.366;-1.544;2022-10-23T00:25:52;12;11;
46573;PMS5003;32299;53.366;-1.544;2022-10-23T00:28:20;18;11;
46573;PMS5003;32299;53.366;-1.544;2022-10-23T00:30:47;12;11;
46573;PMS5003;32299;53.366;-1.544;2022-10-23T00:33:13;15;14;
46573;PMS5003;32299;53.366;-1.544;2022-10-23T00:35:41;14;12;
46573;PMS5003;32299;53.366;-1.544;2022-10-23T00:38:09;12;11;
46573;PMS5003;32299;53.366;-1.544;2022-10-23T00:40:44;14;11;
46573;PMS5003;32299;53.366;-1.544;2022-10-23T00:43:15;17;13;
46573;PMS5003;32299;53.366;-1.544;2022-10-23T00:45:45;11;8;
46573;PMS5003;32299;53.366;-1.544;2022-10-23T00:48:13;10;10;
46573;PMS5003;32299;53.366;-1.544;2022-10-23T00:50:41;23;11;
46573;PMS5003;32299;53.366;-1.544;2022-10-23T00:53:10;14;9;
46573;PMS5003;32299;53.366;-1.544;2022-10-23T00:55:39;10;10;
46573;PMS5003;32299;53.366;-1.544;2022-10-23T00:58:09;11;11;
46573;PMS5003;32299;53.366;-1.544;2022-10-23T01:00:41;10;10;
46573;PMS5003;32299;53.366;-1.544;2022-10-23T01:03:11;11;11;
46573;PMS5003;32299;53.366;-1.544;2022-10-23T01:05:43;13;9;
46573;PMS5003;32299;53.366;-1.544;2022-10-23T01:08:16;12;11;
46573;PMS5003;32299;53.366;-1.544;2022-10-23T01:10:50;9;9;
46573;PMS5003;32299;53.366;-1.544;2022-10-23T01:13:21;11;9;
46573;PMS5003;32299;53.366;-1.544;2022-10-23T01:15:56;11;11;
46573;PMS5003;32299;53.366;-1.544;2022-10-23T01:18:30;16;13;
46573;PMS5003;32299;53.366;-1.544;2022-10-23T01:21:06;16;11;
46573;PMS5003;32299;53.366;-1.544;2022-10-23T01:23:48;17;17;
46573;PMS5003;32299;53.366;-1.544;2022-10-23T01:26:43;19;15;
46573;PMS5003;32299;53.366;-1.544;2022-10-23T01:29:23;22;14;
46573;PMS5003;32299;53.366;-1.544;2022-10-23T01:31:55;14;13;
46573;PMS5003;32299;53.366;-1.544;2022-10-23T01:34:30;15;14;
46573;PMS5003;32299;53.366;-1.544;2022-10-23T01:37:04;18;14;
46573;PMS5003;32299;53.366;-1.544;2022-10-23T01:39:37;13;12;
46573;PMS5003;32299;53.366;-1.544;2022-10-23T01:42:10;14;14;
46573;PMS5003;32299;53.366;-1.544;2022-10-23T01:44:43;20;16;
46573;PMS5003;32299;53.366;-1.544;2022-10-23T01:47:13;14;14;
46573;PMS5003;32299;53.366;-1.544;2022-10-23T01:49:42;15;13;
46573;PMS5003;32299;53.366;-1.544;2022-10-23T01:52:12;20;14;
46573;PMS5003;32299;53.366;-1.544;2022-10-23T01:54:42;14;13;
46573;PMS5003;32299;53.366;-1.544;2022-10-23T01:57:13;12;10;
46573;PMS5003;32299;53.366;-1.544;2022-10-23T01:59:43;14;13;
46573;PMS5003;32299;53.366;-1.544;2022-10-23T02:02:15;21;11;
46573;PMS5003;32299;53.366;-1.544;2022-10-23T02:04:45;13;12;
46573;PMS5003;32299;53.366;-1.544;2022-10-23T02:07:16;14;14;
46573;PMS5003;32299;53.366;-1.544;2022-10-23T02:09:43;21;12;
46573;PMS5003;32299;53.366;-1.544;2022-10-23T02:12:12;11;11;
46573;PMS5003;32299;53.366;-1.544;2022-10-23T02:14:45;17;13;
46573;PMS5003;32299;53.366;-1.544;2022-10-23T02:17:19;13;12;
46573;PMS5003;32299;53.366;-1.544;2022-10-23T02:19:54;14;13;
46573;PMS5003;32299;53.366;-1.544;2022-10-23T02:22:26;17;14;
46573;PMS5003;32299;53.366;-1.544;2022-10-23T02:24:59;17;15;
46573;PMS5003;32299;53.366;-1.544;2022-10-23T02:27:36;13;10;
46573;PMS5003;32299;53.366;-1.544;2022-10-23T02:30:06;12;12;
46573;PMS5003;32299;53.366;-1.544;2022-10-23T02:32:35;17;15;
46573;PMS5003;32299;53.366;-1.544;2022-10-23T02:35:08;16;14;
46573;PMS5003;32299;53.366;-1.544;2022-10-23T02:37:35;19;19;
46573;PMS5003;32299;53.366;-1.544;2022-10-23T02:40:03;27;18;
46573;PMS5003;32299;53.366;-1.544;2022-10-23T02:42:33;17;13;
46573;PMS5003;32299;53.366;-1.544;2022-10-23T02:45:06;19;15;
46573;PMS5003;32299;53.366;-1.544;2022-10-23T02:47:45;15;14;
46573;PMS5003;32299;53.366;-1.544;2022-10-23T02:50:22;17;15;
46573;PMS5003;32299;53.366;-1.544;2022-10-23T02:52:57;16;16;
46573;PMS5003;32299;53.366;-1.544;2022-10-23T02:55:35;14;12;
46573;PMS5003;32299;53.366;-1.544;2022-10-23T02:58:13;17;13;
46573;PMS5003;32299;53.366;-1.544;2022-10-23T03:00:47;14;14;
46573;PMS5003;32299;53.366;-1.544;2022-10-23T03:03:19;15;13;
46573;PMS5003;32299;53.366;-1.544;2022-10-23T03:05:52;24;15;
46573;PMS5003;32299;53.366;-1.544;2022-10-23T03:08:19;13;11;
46573;PMS5003;32299;53.366;-1.544;2022-10-23T03:10:47;14;12;
46573;PMS5003;32299;53.366;-1.544;2022-10-23T03:13:14;15;14;
46573;PMS5003;32299;53.366;-1.544;2022-10-23T03:15:41;19;15;
46573;PMS5003;32299;53.366;-1.544;2022-10-23T03:18:08;19;14;
46573;PMS5003;32299;53.366;-1.544;2022-10-23T03:20:35;16;11;
46573;PMS5003;32299;53.366;-1.544;2022-10-23T03:23:03;17;15;
46573;PMS5003;32299;53.366;-1.544;2022-10-23T03:25:30;28;14;
46573;PMS5003;32299;53.366;-1.544;2022-10-23T03:27:57;22;14;
46573;PMS5003;32299;53.366;-1.544;2022-10-23T03:30:24;14;13;
46573;PMS5003;32299;53.366;-1.544;2022-10-23T03:32:51;18;15;
46573;PMS5003;32299;53.366;-1.544;2022-10-23T03:35:18;12;12;
46573;PMS5003;32299;53.366;-1.544;2022-10-23T03:37:46;10;8;
46573;PMS5003;32299;53.366;-1.544;2022-10-23T03:40:13;12;11;
46573;PMS5003;32299;53.366;-1.544;2022-10-23T03:42:39;14;10;
46573;PMS5003;32299;53.366;-1.544;2022-10-23T03:45:07;14;10;
46573;PMS5003;32299;53.366;-1.544;2022-10-23T03:47:35;13;10;
46573;PMS5003;32299;53.366;-1.544;2022-10-23T03:50:02;9;9;
46573;PMS5003;32299;53.366;-1.544;2022-10-23T03:52:29;12;11;
46573;PMS5003;32299;53.366;-1.544;2022-10-23T03:54:56;11;11;
46573;PMS5003;32299;53.366;-1.544;2022-10-23T03:57:23;12;11;
46573;PMS5003;32299;53.366;-1.544;2022-10-23T03:59:50;14;12;
46573;PMS5003;32299;53.366;-1.544;2022-10-23T04:02:18;10;10;
46573;PMS5003;32299;53.366;-1.544;2022-10-23T04:04:45;22;13;
46573;PMS5003;32299;53.366;-1.544;2022-10-23T04:07:12;19;11;
46573;PMS5003;32299;53.366;-1.544;2022-10-23T04:09:40;12;11;
46573;PMS5003;32299;53.366;-1.544;2022-10-23T04:12:07;14;11;
46573;PMS5003;32299;53.366;-1.544;2022-10-23T04:14:34;13;11;
46573;PMS5003;32299;53.366;-1.544;2022-10-23T04:17:01;18;11;
46573;PMS5003;32299;53.366;-1.544;2022-10-23T04:19:28;13;12;
46573;PMS5003;32299;53.366;-1.544;2022-10-23T04:21:55;22;13;
46573;PMS5003;32299;53.366;-1.544;2022-10-23T04:24:23;13;11;
46573;PMS5003;32299;53.366;-1.544;2022-10-23T04:26:51;26;13;
46573;PMS5003;32299;53.366;-1.544;2022-10-23T04:29:19;12;11;
46573;PMS5003;32299;53.366;-1.544;2022-10-23T04:31:46;15;12;
46573;PMS5003;32299;53.366;-1.544;2022-10-23T04:34:14;9;9;
46573;PMS5003;32299;53.366;-1.544;2022-10-23T04:36:41;18;14;
46573;PMS5003;32299;53.366;-1.544;2022-10-23T04:39:08;12;11;
46573;PMS5003;32299;53.366;-1.544;2022-10-23T04:41:36;12;12;
46573;PMS5003;32299;53.366;-1.544;2022-10-23T04:44:03;12;11;
46573;PMS5003;32299;53.366;-1.544;2022-10-23T04:46:30;16;12;
46573;PMS5003;32299;53.366;-1.544;2022-10-23T04:48:57;13;12;
46573;PMS5003;32299;53.366;-1.544;2022-10-23T04:51:25;15;12;
46573;PMS5003;32299;53.366;-1.544;2022-10-23T04:53:52;13;12;
46573;PMS5003;32299;53.366;-1.544;2022-10-23T04:56:19;16;14;
46573;PMS5003;32299;53.366;-1.544;2022-10-23T04:58:46;16;14;
46573;PMS5003;32299;53.366;-1.544;2022-10-23T05:01:14;16;15;
46573;PMS5003;32299;53.366;-1.544;2022-10-23T05:03:41;13;13;
46573;PMS5003;32299;53.366;-1.544;2022-10-23T05:06:08;10;9;
46573;PMS5003;32299;53.366;-1.544;2022-10-23T05:08:35;14;13;
46573;PMS5003;32299;53.366;-1.544;2022-10-23T05:11:02;16;14;
46573;PMS5003;32299;53.366;-1.544;2022-10-23T05:13:29;31;14;
46573;PMS5003;32299;53.366;-1.544;2022-10-23T05:15:56;17;13;
46573;PMS5003;32299;53.366;-1.544;2022-10-23T05:18:25;18;13;
46573;PMS5003;32299;53.366;-1.544;2022-10-23T05:20:55;28;13;
46573;PMS5003;32299;53.366;-1.544;2022-10-23T05:23:25;16;15;
46573;PMS5003;32299;53.366;-1.544;2022-10-23T05:25:53;19;15;
46573;PMS5003;32299;53.366;-1.544;2022-10-23T05:28:20;18;14;
46573;PMS5003;32299;53.366;-1.544;2022-10-23T05:30:47;18;13;
46573;PMS5003;32299;53.366;-1.544;2022-10-23T05:33:15;24;15;
46573;PMS5003;32299;53.366;-1.544;2022-10-23T05:35:42;15;14;
46573;PMS5003;32299;53.366;-1.544;2022-10-23T05:38:10;21;18;
46573;PMS5003;32299;53.366;-1.544;2022-10-23T05:40:39;27;16;
46573;PMS5003;32299;53.366;-1.544;2022-10-23T05:43:06;34;20;
46573;PMS5003;32299;53.366;-1.544;2022-10-23T05:45:34;18;14;
46573;PMS5003;32299;53.366;-1.544;2022-10-23T05:48:01;20;18;
46573;PMS5003;32299;53.366;-1.544;2022-10-23T05:50:28;24;15;
46573;PMS5003;32299;53.366;-1.544;2022-10-23T05:52:56;20;18;
46573;PMS5003;32299;53.366;-1.544;2022-10-23T05:55:24;17;15;
46573;PMS5003;32299;53.366;-1.544;2022-10-23T05:57:51;24;17;
46573;PMS5003;32299;53.366;-1.544;2022-10-23T06:00:19;19;16;
46573;PMS5003;32299;53.366;-1.544;2022-10-23T06:02:46;22;18;
46573;PMS5003;32299;53.366;-1.544;2022-10-23T06:05:13;22;20;
46573;PMS5003;32299;53.366;-1.544;2022-10-23T06:07:41;19;17;
46573;PMS5003;32299;53.366;-1.544;2022-10-23T06:10:08;17;16;
46573;PMS5003;32299;53.366;-1.544;2022-10-23T06:12:37;21;18;
46573;PMS5003;32299;53.366;-1.544;2022-10-23T06:15:05;26;23;
46573;PMS5003;32299;53.366;-1.544;2022-10-23T06:17:33;29;22;
46573;PMS5003;32299;53.366;-1.544;2022-10-23T06:20:00;25;18;
46573;PMS5003;32299;53.366;-1.544;2022-10-23T06:22:27;37;21;
46573;PMS5003;32299;53.366;-1.544;2022-10-23T06:24:55;29;19;
46573;PMS5003;32299;53.366;-1.544;2022-10-23T06:27:22;27;21;
46573;PMS5003;32299;53.366;-1.544;2022-10-23T06:29:50;36;20;
46573;PMS5003;32299;53.366;-1.544;2022-10-23T06:32:17;24;22;
46573;PMS5003;32299;53.366;-1.544;2022-10-23T06:34:44;34;22;
46573;PMS5003;32299;53.366;-1.544;2022-10-23T06:37:11;25;21;
46573;PMS5003;32299;53.366;-1.544;2022-10-23T06:39:38;38;25;
46573;PMS5003;32299;53.366;-1.544;2022-10-23T06:42:06;45;26;
46573;PMS5003;32299;53.366;-1.544;2022-10-23T06:44:33;33;19;
46573;PMS5003;32299;53.366;-1.544;2022-10-23T06:47:00;20;18;
46573;PMS5003;32299;53.366;-1.544;2022-10-23T06:49:27;31;18;
46573;PMS5003;32299;53.366;-1.544;2022-10-23T06:51:55;21;20;
46573;PMS5003;32299;53.366;-1.544;2022-10-23T06:54:21;20;17;
46573;PMS5003;32299;53.366;-1.544;2022-10-23T06:56:49;21;19;
46573;PMS5003;32299;53.366;-1.544;2022-10-23T06:59:16;23;20;
46573;PMS5003;32299;53.366;-1.544;2022-10-23T07:01:44;21;20;
46573;PMS5003;32299;53.366;-1.544;2022-10-23T07:04:11;38;22;
46573;PMS5003;32299;53.366;-1.544;2022-10-23T07:06:39;23;23;
46573;PMS5003;32299;53.366;-1.544;2022-10-23T07:09:06;26;23;
46573;PMS5003;32299;53.366;-1.544;2022-10-23T07:11:33;24;23;
46573;PMS5003;32299;53.366;-1.544;2022-10-23T07:14:00;22;19;
46573;PMS5003;32299;53.366;-1.544;2022-10-23T07:16:27;20;20;
46573;PMS5003;32299;53.366;-1.544;2022-10-23T07:18:55;18;15;
46573;PMS5003;32299;53.366;-1.544;2022-10-23T07:21:24;16;16;
46573;PMS5003;32299;53.366;-1.544;2022-10-23T07:23:51;19;16;
46573;PMS5003;32299;53.366;-1.544;2022-10-23T07:26:19;15;14;
46573;PMS5003;32299;53.366;-1.544;2022-10-23T07:28:47;22;17;
46573;PMS5003;32299;53.366;-1.544;2022-10-23T07:31:14;24;19;
46573;PMS5003;32299;53.366;-1.544;2022-10-23T07:33:41;21;18;
46573;PMS5003;32299;53.366;-1.544;2022-10-23T07:36:09;32;17;
46573;PMS5003;32299;53.366;-1.544;2022-10-23T07:38:36;26;15;
46573;PMS5003;32299;53.366;-1.544;2022-10-23T07:41:04;11;10;
46573;PMS5003;32299;53.366;-1.544;2022-10-23T07:43:31;8;8;
46573;PMS5003;32299;53.366;-1.544;2022-10-23T07:45:58;10;9;
46573;PMS5003;32299;53.366;-1.544;2022-10-23T07:48:25;14;9;
46573;PMS5003;32299;53.366;-1.544;2022-10-23T07:50:56;7;6;
46573;PMS5003;32299;53.366;-1.544;2022-10-23T07:53:24;8;8;
46573;PMS5003;32299;53.366;-1.544;2022-10-23T07:55:51;7;7;
46573;PMS5003;32299;53.366;-1.544;2022-10-23T07:58:19;7;7;
46573;PMS5003;32299;53.366;-1.544;2022-10-23T08:00:47;6;6;
46573;PMS5003;32299;53.366;-1.544;2022-10-23T08:03:21;7;7;
46573;PMS5003;32299;53.366;-1.544;2022-10-23T08:05:48;9;9;
46573;PMS5003;32299;53.366;-1.544;2022-10-23T08:08:20;11;8;
46573;PMS5003;32299;53.366;-1.544;2022-10-23T08:10:48;25;11;
46573;PMS5003;32299;53.366;-1.544;2022-10-23T08:13:17;11;9;
46573;PMS5003;32299;53.366;-1.544;2022-10-23T08:15:45;8;8;
46573;PMS5003;32299;53.366;-1.544;2022-10-23T08:18:15;11;9;
46573;PMS5003;32299;53.366;-1.544;2022-10-23T08:20:43;11;11;
46573;PMS5003;32299;53.366;-1.544;2022-10-23T08:23:12;20;10;
46573;PMS5003;32299;53.366;-1.544;2022-10-23T08:25:42;12;12;
46573;PMS5003;32299;53.366;-1.544;2022-10-23T08:28:10;26;12;
46573;PMS5003;32299;53.366;-1.544;2022-10-23T08:30:37;16;9;
46573;PMS5003;32299;53.366;-1.544;2022-10-23T08:33:05;12;11;
46573;PMS5003;32299;53.366;-1.544;2022-10-23T08:35:34;7;7;
46573;PMS5003;32299;53.366;-1.544;2022-10-23T08:38:02;9;8;
46573;PMS5003;32299;53.366;-1.544;2022-10-23T08:40:30;17;9;
46573;PMS5003;32299;53.366;-1.544;2022-10-23T08:42:58;22;11;
46573;PMS5003;32299;53.366;-1.544;2022-10-23T08:45:32;10;10;
46573;PMS5003;32299;53.366;-1.544;2022-10-23T08:48:05;10;10;
46573;PMS5003;32299;53.366;-1.544;2022-10-23T08:50:43;13;13;
46573;PMS5003;32299;53.366;-1.544;2022-10-23T08:53:17;11;10;
46573;PMS5003;32299;53.366;-1.544;2022-10-23T08:55:52;11;10;
46573;PMS5003;32299;53.366;-1.544;2022-10-23T08:58:25;13;11;
46573;PMS5003;32299;53.366;-1.544;2022-10-23T09:00:59;14;11;
46573;PMS5003;32299;53.366;-1.544;2022-10-23T09:03:28;13;11;
46573;PMS5003;32299;53.366;-1.544;2022-10-23T09:05:58;14;11;
46573;PMS5003;32299;53.366;-1.544;2022-10-23T09:08:35;13;11;
46573;PMS5003;32299;53.366;-1.544;2022-10-23T09:11:13;11;11;
46573;PMS5003;32299;53.366;-1.544;2022-10-23T09:13:53;13;11;
46573;PMS5003;32299;53.366;-1.544;2022-10-23T09:16:31;14;12;
46573;PMS5003;32299;53.366;-1.544;2022-10-23T09:19:13;11;11;
46573;PMS5003;32299;53.366;-1.544;2022-10-23T09:21:43;14;12;
46573;PMS5003;32299;53.366;-1.544;2022-10-23T09:24:13;13;10;
46573;PMS5003;32299;53.366;-1.544;2022-10-23T09:26:41;17;10;
46573;PMS5003;32299;53.366;-1.544;2022-10-23T09:29:13;11;11;
46573;PMS5003;32299;53.366;-1.544;2022-10-23T09:31:48;11;10;
46573;PMS5003;32299;53.366;-1.544;2022-10-23T09:34:17;21;14;
46573;PMS5003;32299;53.366;-1.544;2022-10-23T09:36:49;12;12;
46573;PMS5003;32299;53.366;-1.544;2022-10-23T09:39:20;12;12;
46573;PMS5003;32299;53.366;-1.544;2022-10-23T09:41:49;10;10;
46573;PMS5003;32299;53.366;-1.544;2022-10-23T09:44:17;13;11;
46573;PMS5003;32299;53.366;-1.544;2022-10-23T09:46:47;14;13;
46573;PMS5003;32299;53.366;-1.544;2022-10-23T09:49:16;11;10;
46573;PMS5003;32299;53.366;-1.544;2022-10-23T09:51:50;15;12;
46573;PMS5003;32299;53.366;-1.544;2022-10-23T09:54:21;25;14;
46573;PMS5003;32299;53.366;-1.544;2022-10-23T09:56:49;11;11;
46573;PMS5003;32299;53.366;-1.544;2022-10-23T09:59:20;10;10;
46573;PMS5003;32299;53.366;-1.544;2022-10-23T10:01:52;8;7;
46573;PMS5003;32299;53.366;-1.544;2022-10-23T10:04:30;9;9;
46573;PMS5003;32299;53.366;-1.544;2022-10-23T10:07:00;10;9;
46573;PMS5003;32299;53.366;-1.544;2022-10-23T10:09:28;8;8;
46573;PMS5003;32299;53.366;-1.544;2022-10-23T10:11:57;11;6;
46573;PMS5003;32299;53.366;-1.544;2022-10-23T10:14:40;7;7;
46573;PMS5003;32299;53.366;-1.544;2022-10-23T10:17:16;10;10;
46573;PMS5003;32299;53.366;-1.544;2022-10-23T10:19:55;5;5;
46573;PMS5003;32299;53.366;-1.544;2022-10-23T10:22:34;8;6;
46573;PMS5003;32299;53.366;-1.544;2022-10-23T10:25:09;8;6;
46573;PMS5003;32299;53.366;-1.544;2022-10-23T10:27:44;7;7;
46573;PMS5003;32299;53.366;-1.544;2022-10-23T10:30:18;7;6;
46573;PMS5003;32299;53.366;-1.544;2022-10-23T10:32:49;6;6;
46573;PMS5003;32299;53.366;-1.544;2022-10-23T10:35:25;6;5;
46573;PMS5003;32299;53.366;-1.544;2022-10-23T10:38:09;5;5;
46573;PMS5003;32299;53.366;-1.544;2022-10-23T10:40:49;4;4;
46573;PMS5003;32299;53.366;-1.544;2022-10-23T10:43:32;4;4;
46573;PMS5003;32299;53.366;-1.544;2022-10-23T10:46:10;6;6;
46573;PMS5003;32299;53.366;-1.544;2022-10-23T10:48:46;3;3;
46573;PMS5003;32299;53.366;-1.544;2022-10-23T10:51:21;2;2;
46573;PMS5003;32299;53.366;-1.544;2022-10-23T10:54:00;4;4;
46573;PMS5003;32299;53.366;-1.544;2022-10-23T10:56:41;4;4;
46573;PMS5003;32299;53.366;-1.544;2022-10-23T10:59:12;5;4;
46573;PMS5003;32299;53.366;-1.544;2022-10-23T11:01:45;3;3;
46573;PMS5003;32299;53.366;-1.544;2022-10-23T11:04:21;7;5;
46573;PMS5003;32299;53.366;-1.544;2022-10-23T11:06:58;5;5;
46573;PMS5003;32299;53.366;-1.544;2022-10-23T11:09:32;5;5;
46573;PMS5003;32299;53.366;-1.544;2022-10-23T11:11:59;5;5;
46573;PMS5003;32299;53.366;-1.544;2022-10-23T11:14:27;9;6;
46573;PMS5003;32299;53.366;-1.544;2022-10-23T11:16:59;6;6;
46573;PMS5003;32299;53.366;-1.544;2022-10-23T11:19:33;7;7;
46573;PMS5003;32299;53.366;-1.544;2022-10-23T11:22:07;8;7;
46573;PMS5003;32299;53.366;-1.544;2022-10-23T11:24:45;7;7;
46573;PMS5003;32299;53.366;-1.544;2022-10-23T11:27:27;7;7;
46573;PMS5003;32299;53.366;-1.544;2022-10-23T11:30:08;11;10;
46573;PMS5003;32299;53.366;-1.544;2022-10-23T11:32:48;12;9;
46573;PMS5003;32299;53.366;-1.544;2022-10-23T11:35:32;10;10;
46573;PMS5003;32299;53.366;-1.544;2022-10-23T11:38:13;12;12;
46573;PMS5003;32299;53.366;-1.544;2022-10-23T11:40:44;12;12;
46573;PMS5003;32299;53.366;-1.544;2022-10-23T11:43:12;14;14;
46573;PMS5003;32299;53.366;-1.544;2022-10-23T11:45:50;12;11;
46573;PMS5003;32299;53.366;-1.544;2022-10-23T11:48:19;11;11;
46573;PMS5003;32299;53.366;-1.544;2022-10-23T11:50:50;11;11;
46573;PMS5003;32299;53.366;-1.544;2022-10-23T11:53:24;10;10;
46573;PMS5003;32299;53.366;-1.544;2022-10-23T11:56:02;13;13;
46573;PMS5003;32299;53.366;-1.544;2022-10-23T11:58:49;9;9;
46573;PMS5003;32299;53.366;-1.544;2022-10-23T12:01:19;13;13;
46573;PMS5003;32299;53.366;-1.544;2022-10-23T12:03:54;24;13;
46573;PMS5003;32299;53.366;-1.544;2022-10-23T12:06:26;27;15;
46573;PMS5003;32299;53.366;-1.544;2022-10-23T12:08:57;8;8;
46573;PMS5003;32299;53.366;-1.544;2022-10-23T12:11:38;12;11;
46573;PMS5003;32299;53.366;-1.544;2022-10-23T12:14:23;19;11;
46573;PMS5003;32299;53.366;-1.544;2022-10-23T12:16:52;13;13;
46573;PMS5003;32299;53.366;-1.544;2022-10-23T12:19:19;12;11;
46573;PMS5003;32299;53.366;-1.544;2022-10-23T12:21:50;13;12;
46573;PMS5003;32299;53.366;-1.544;2022-10-23T12:24:37;12;12;
46573;PMS5003;32299;53.366;-1.544;2022-10-23T12:27:19;12;11;
46573;PMS5003;32299;53.366;-1.544;2022-10-23T12:29:58;11;11;
46573;PMS5003;32299;53.366;-1.544;2022-10-23T12:32:42;10;10;
46573;PMS5003;32299;53.366;-1.544;2022-10-23T12:35:23;9;9;
46573;PMS5003;32299;53.366;-1.544;2022-10-23T12:38:12;14;13;
46573;PMS5003;32299;53.366;-1.544;2022-10-23T12:40:43;22;14;
46573;PMS5003;32299;53.366;-1.544;2022-10-23T12:43:20;14;14;
46573;PMS5003;32299;53.366;-1.544;2022-10-23T12:45:51;11;11;
46573;PMS5003;32299;53.366;-1.544;2022-10-23T12:48:21;15;15;
46573;PMS5003;32299;53.366;-1.544;2022-10-23T12:50:50;11;11;
46573;PMS5003;32299;53.366;-1.544;2022-10-23T12:53:19;12;12;
46573;PMS5003;32299;53.366;-1.544;2022-10-23T12:55:48;13;12;
46573;PMS5003;32299;53.366;-1.544;2022-10-23T12:58:20;19;11;
46573;PMS5003;32299;53.366;-1.544;2022-10-23T13:00:49;15;14;
46573;PMS5003;32299;53.366;-1.544;2022-10-23T13:03:19;12;11;
46573;PMS5003;32299;53.366;-1.544;2022-10-23T13:05:48;12;11;
46573;PMS5003;32299;53.366;-1.544;2022-10-23T13:08:17;14;14;
46573;PMS5003;32299;53.366;-1.544;2022-10-23T13:10:47;22;12;
46573;PMS5003;32299;53.366;-1.544;2022-10-23T13:13:16;15;13;
46573;PMS5003;32299;53.366;-1.544;2022-10-23T13:15:48;10;10;
46573;PMS5003;32299;53.366;-1.544;2022-10-23T13:18:15;10;10;
46573;PMS5003;32299;53.366;-1.544;2022-10-23T13:20:54;14;12;
46573;PMS5003;32299;53.366;-1.544;2022-10-23T13:23:23;19;10;
46573;PMS5003;32299;53.366;-1.544;2022-10-23T13:25:55;9;9;
46573;PMS5003;32299;53.366;-1.544;2022-10-23T13:28:24;11;11;
46573;PMS5003;32299;53.366;-1.544;2022-10-23T13:30:59;9;9;
46573;PMS5003;32299;53.366;-1.544;2022-10-23T13:33:31;10;10;
46573;PMS5003;32299;53.366;-1.544;2022-10-23T13:36:01;11;10;
46573;PMS5003;32299;53.366;-1.544;2022-10-23T13:38:31;11;11;
46573;PMS5003;32299;53.366;-1.544;2022-10-23T13:41:00;11;10;
46573;PMS5003;32299;53.366;-1.544;2022-10-23T13:43:29;11;10;
46573;PMS5003;32299;53.366;-1.544;2022-10-23T13:45:58;11;11;
46573;PMS5003;32299;53.366;-1.544;2022-10-23T13:48:27;11;10;
46573;PMS5003;32299;53.366;-1.544;2022-10-23T13:50:57;7;7;
46573;PMS5003;32299;53.366;-1.544;2022-10-23T13:53:36;9;9;
46573;PMS5003;32299;53.366;-1.544;2022-10-23T13:56:03;10;10;
46573;PMS5003;32299;53.366;-1.544;2022-10-23T13:58:30;11;10;
46573;PMS5003;32299;53.366;-1.544;2022-10-23T14:00:58;10;10;
46573;PMS5003;32299;53.366;-1.544;2022-10-23T14:03:25;12;10;
46573;PMS5003;32299;53.366;-1.544;2022-10-23T14:05:52;9;8;
46573;PMS5003;32299;53.366;-1.544;2022-10-23T14:08:19;12;9;
46573;PMS5003;32299;53.366;-1.544;2022-10-23T14:10:46;9;9;
46573;PMS5003;32299;53.366;-1.544;2022-10-23T14:13:13;8;8;
46573;PMS5003;32299;53.366;-1.544;2022-10-23T14:15:40;13;13;
46573;PMS5003;32299;53.366;-1.544;2022-10-23T14:18:07;9;8;
46573;PMS5003;32299;53.366;-1.544;2022-10-23T14:20:36;8;8;
46573;PMS5003;32299;53.366;-1.544;2022-10-23T14:23:03;11;8;
46573;PMS5003;32299;53.366;-1.544;2022-10-23T14:25:30;9;9;
46573;PMS5003;32299;53.366;-1.544;2022-10-23T14:27:57;11;10;
46573;PMS5003;32299;53.366;-1.544;2022-10-23T14:30:24;12;11;
46573;PMS5003;32299;53.366;-1.544;2022-10-23T14:32:51;10;10;
46573;PMS5003;32299;53.366;-1.544;2022-10-23T14:35:18;9;9;
46573;PMS5003;32299;53.366;-1.544;2022-10-23T14:37:45;6;6;
46573;PMS5003;32299;53.366;-1.544;2022-10-23T14:40:12;11;11;
46573;PMS5003;32299;53.366;-1.544;2022-10-23T14:42:40;10;7;
46573;PMS5003;32299;53.366;-1.544;2022-10-23T14:45:07;12;10;
46573;PMS5003;32299;53.366;-1.544;2022-10-23T14:47:35;13;11;
46573;PMS5003;32299;53.366;-1.544;2022-10-23T14:50:02;24;14;
46573;PMS5003;32299;53.366;-1.544;2022-10-23T14:52:30;25;13;
46573;PMS5003;32299;53.366;-1.544;2022-10-23T14:54:57;12;12;
46573;PMS5003;32299;53.366;-1.544;2022-10-23T14:57:24;12;12;
46573;PMS5003;32299;53.366;-1.544;2022-10-23T14:59:51;11;10;
46573;PMS5003;32299;53.366;-1.544;2022-10-23T15:02:18;11;7;
46573;PMS5003;32299;53.366;-1.544;2022-10-23T15:04:45;10;10;
46573;PMS5003;32299;53.366;-1.544;2022-10-23T15:07:12;7;7;
46573;PMS5003;32299;53.366;-1.544;2022-10-23T15:09:39;12;10;
46573;PMS5003;32299;53.366;-1.544;2022-10-23T15:12:06;12;10;
46573;PMS5003;32299;53.366;-1.544;2022-10-23T15:14:34;8;7;
46573;PMS5003;32299;53.366;-1.544;2022-10-23T15:17:01;8;8;
46573;PMS5003;32299;53.366;-1.544;2022-10-23T15:19:28;8;8;
46573;PMS5003;32299;53.366;-1.544;2022-10-23T15:21:55;10;10;
46573;PMS5003;32299;53.366;-1.544;2022-10-23T15:24:21;9;9;
46573;PMS5003;32299;53.366;-1.544;2022-10-23T15:26:49;11;11;
46573;PMS5003;32299;53.366;-1.544;2022-10-23T15:29:17;13;13;
46573;PMS5003;32299;53.366;-1.544;2022-10-23T15:31:46;8;8;
46573;PMS5003;32299;53.366;-1.544;2022-10-23T15:34:19;9;9;
46573;PMS5003;32299;53.366;-1.544;2022-10-23T15:36:47;14;10;
46573;PMS5003;32299;53.366;-1.544;2022-10-23T15:39:16;12;11;
46573;PMS5003;32299;53.366;-1.544;2022-10-23T15:41:46;9;6;
46573;PMS5003;32299;53.366;-1.544;2022-10-23T15:44:17;8;8;
46573;PMS5003;32299;53.366;-1.544;2022-10-23T15:46:46;10;9;
46573;PMS5003;32299;53.366;-1.544;2022-10-23T15:49:13;13;11;
46573;PMS5003;32299;53.366;-1.544;2022-10-23T15:51:41;12;11;
46573;PMS5003;32299;53.366;-1.544;2022-10-23T15:54:10;15;15;
46573;PMS5003;32299;53.366;-1.544;2022-10-23T15:56:40;13;13;
46573;PMS5003;32299;53.366;-1.544;2022-10-23T15:59:08;15;15;
46573;PMS5003;32299;53.366;-1.544;2022-10-23T16:01:35;14;13;
46573;PMS5003;32299;53.366;-1.544;2022-10-23T16:04:03;12;12;
46573;PMS5003;32299;53.366;-1.544;2022-10-23T16:06:30;14;13;
46573;PMS5003;32299;53.366;-1.544;2022-10-23T16:08:58;17;14;
46573;PMS5003;32299;53.366;-1.544;2022-10-23T16:11:26;17;15;
46573;PMS5003;32299;53.366;-1.544;2022-10-23T16:13:55;12;12;
46573;PMS5003;32299;53.366;-1.544;2022-10-23T16:16:23;13;13;
46573;PMS5003;32299;53.366;-1.544;2022-10-23T16:18:51;14;13;
46573;PMS5003;32299;53.366;-1.544;2022-10-23T16:21:19;10;10;
46573;PMS5003;32299;53.366;-1.544;2022-10-23T16:23:48;12;12;
46573;PMS5003;32299;53.366;-1.544;2022-10-23T16:26:17;13;13;
46573;PMS5003;32299;53.366;-1.544;2022-10-23T16:28:44;15;14;